sensor_id;sensor_type;location;lat;lon;timestamp;temperature;humidity
37702;DHT22;23548;51.196;6.838;2022-11-09T00:00:36;14.90;99.90
37702;DHT22;23548;51.196;6.838;2022-11-09T00:03:01;14.80;99.90
37702;DHT22;23548;51.196;6.838;2022-11-09T00:05:28;14.70;99.90
37702;DHT22;23548;51.196;6.838;2022-11-09T00:07:53;14.70;99.90
37702;DHT22;23548;51.196;6.838;2022-11-09T00:10:19;14.70;99.90
37702;DHT22;23548;51.196;6.838;2022-11-09T00:12:45;14.60;99.90
37702;DHT22;23548;51.196;6.838;2022-11-09T00:15:11;14.60;99.90
37702;DHT22;23548;51.196;6.838;2022-11-09T00:17:37;14.60;99.90
37702;DHT22;23548;51.196;6.838;2022-11-09T00:20:03;14.50;99.90
37702;DHT22;23548;51.196;6.838;2022-11-09T00:22:29;14.50;99.90
37702;DHT22;23548;51.196;6.838;2022-11-09T00:24:54;14.50;99.90
37702;DHT22;23548;51.196;6.838;2022-11-09T00:27:20;14.50;99.90
37702;DHT22;23548;51.196;6.838;2022-11-09T00:29:46;14.40;99.90
37702;DHT22;23548;51.196;6.838;2022-11-09T00:32:12;14.40;99.90
37702;DHT22;23548;51.196;6.838;2022-11-09T00:34:38;14.30;99.90
37702;DHT22;23548;51.196;6.838;2022-11-09T00:37:04;14.30;99.90
37702;DHT22;23548;51.196;6.838;2022-11-09T00:39:29;14.30;99.90
37702;DHT22;23548;51.196;6.838;2022-11-09T00:41:55;14.30;99.90
37702;DHT22;23548;51.196;6.838;2022-11-09T00:44:21;14.20;99.90
37702;DHT22;23548;51.196;6.838;2022-11-09T00:46:47;14.20;99.90
37702;DHT22;23548;51.196;6.838;2022-11-09T00:49:12;14.10;99.90
37702;DHT22;23548;51.196;6.838;2022-11-09T00:51:38;14.10;99.90
37702;DHT22;23548;51.196;6.838;2022-11-09T00:54:04;14.00;99.90
37702;DHT22;23548;51.196;6.838;2022-11-09T00:56:32;14.10;99.90
37702;DHT22;23548;51.196;6.838;2022-11-09T00:58:58;14.10;99.90
37702;DHT22;23548;51.196;6.838;2022-11-09T01:01:24;14.10;99.90
37702;DHT22;23548;51.196;6.838;2022-11-09T01:03:50;14.10;99.90
37702;DHT22;23548;51.196;6.838;2022-11-09T01:06:19;14.10;99.90
37702;DHT22;23548;51.196;6.838;2022-11-09T01:08:45;14.10;99.90
37702;DHT22;23548;51.196;6.838;2022-11-09T01:11:12;14.10;99.90
37702;DHT22;23548;51.196;6.838;2022-11-09T01:13:39;14.20;99.90
37702;DHT22;23548;51.196;6.838;2022-11-09T01:16:12;14.20;99.90
37702;DHT22;23548;51.196;6.838;2022-11-09T01:18:39;14.30;99.90
37702;DHT22;23548;51.196;6.838;2022-11-09T01:21:06;14.30;99.90
37702;DHT22;23548;51.196;6.838;2022-11-09T01:23:33;14.30;99.90
37702;DHT22;23548;51.196;6.838;2022-11-09T01:26:01;14.20;99.90
37702;DHT22;23548;51.196;6.838;2022-11-09T01:28:27;14.20;99.90
37702;DHT22;23548;51.196;6.838;2022-11-09T01:30:54;14.30;99.90
37702;DHT22;23548;51.196;6.838;2022-11-09T01:33:20;14.30;99.90
37702;DHT22;23548;51.196;6.838;2022-11-09T01:35:45;14.40;99.90
37702;DHT22;23548;51.196;6.838;2022-11-09T01:38:11;14.50;99.90
37702;DHT22;23548;51.196;6.838;2022-11-09T01:40:38;14.50;99.90
37702;DHT22;23548;51.196;6.838;2022-11-09T01:43:17;14.50;99.90
37702;DHT22;23548;51.196;6.838;2022-11-09T01:46:00;14.60;99.90
37702;DHT22;23548;51.196;6.838;2022-11-09T01:48:35;14.70;99.90
37702;DHT22;23548;51.196;6.838;2022-11-09T01:51:16;14.70;99.90
37702;DHT22;23548;51.196;6.838;2022-11-09T01:53:45;14.50;99.90
37702;DHT22;23548;51.196;6.838;2022-11-09T01:56:14;14.50;99.90
37702;DHT22;23548;51.196;6.838;2022-11-09T01:58:52;14.50;99.90
37702;DHT22;23548;51.196;6.838;2022-11-09T02:01:20;14.50;99.90
37702;DHT22;23548;51.196;6.838;2022-11-09T02:03:53;14.50;99.90
37702;DHT22;23548;51.196;6.838;2022-11-09T02:06:20;14.60;99.90
37702;DHT22;23548;51.196;6.838;2022-11-09T02:08:48;14.50;99.90
37702;DHT22;23548;51.196;6.838;2022-11-09T02:11:19;14.50;99.90
37702;DHT22;23548;51.196;6.838;2022-11-09T02:13:51;14.50;99.90
37702;DHT22;23548;51.196;6.838;2022-11-09T02:16:18;14.40;99.90
37702;DHT22;23548;51.196;6.838;2022-11-09T02:19:02;14.40;99.90
37702;DHT22;23548;51.196;6.838;2022-11-09T02:21:29;14.40;99.90
37702;DHT22;23548;51.196;6.838;2022-11-09T02:23:57;14.30;99.90
37702;DHT22;23548;51.196;6.838;2022-11-09T02:26:31;14.30;99.90
37702;DHT22;23548;51.196;6.838;2022-11-09T02:29:02;14.50;99.90
37702;DHT22;23548;51.196;6.838;2022-11-09T02:31:32;14.60;99.90
37702;DHT22;23548;51.196;6.838;2022-11-09T02:34:23;14.60;99.90
37702;DHT22;23548;51.196;6.838;2022-11-09T02:36:49;14.60;99.90
37702;DHT22;23548;51.196;6.838;2022-11-09T02:39:18;14.70;99.90
37702;DHT22;23548;51.196;6.838;2022-11-09T02:42:00;14.80;99.90
37702;DHT22;23548;51.196;6.838;2022-11-09T02:44:27;14.80;99.90
37702;DHT22;23548;51.196;6.838;2022-11-09T02:46:54;14.70;99.90
37702;DHT22;23548;51.196;6.838;2022-11-09T02:49:20;14.70;99.90
37702;DHT22;23548;51.196;6.838;2022-11-09T02:51:46;14.70;99.90
37702;DHT22;23548;51.196;6.838;2022-11-09T02:54:12;14.60;99.90
37702;DHT22;23548;51.196;6.838;2022-11-09T02:56:38;14.60;99.90
37702;DHT22;23548;51.196;6.838;2022-11-09T02:59:03;14.70;99.90
37702;DHT22;23548;51.196;6.838;2022-11-09T03:01:30;14.70;99.90
37702;DHT22;23548;51.196;6.838;2022-11-09T03:03:55;14.70;99.90
37702;DHT22;23548;51.196;6.838;2022-11-09T03:06:21;14.70;99.90
37702;DHT22;23548;51.196;6.838;2022-11-09T03:09:06;14.70;99.90
37702;DHT22;23548;51.196;6.838;2022-11-09T03:11:34;14.80;99.90
37702;DHT22;23548;51.196;6.838;2022-11-09T03:14:01;14.70;99.90
37702;DHT22;23548;51.196;6.838;2022-11-09T03:16:27;14.70;99.90
37702;DHT22;23548;51.196;6.838;2022-11-09T03:18:53;14.70;99.90
37702;DHT22;23548;51.196;6.838;2022-11-09T03:21:19;14.70;99.90
37702;DHT22;23548;51.196;6.838;2022-11-09T03:23:47;14.70;99.90
37702;DHT22;23548;51.196;6.838;2022-11-09T03:26:13;14.60;99.90
37702;DHT22;23548;51.196;6.838;2022-11-09T03:28:39;14.70;99.90
37702;DHT22;23548;51.196;6.838;2022-11-09T03:31:05;14.70;99.90
37702;DHT22;23548;51.196;6.838;2022-11-09T03:33:31;14.70;99.90
37702;DHT22;23548;51.196;6.838;2022-11-09T03:35:57;14.70;99.90
37702;DHT22;23548;51.196;6.838;2022-11-09T03:38:23;14.70;99.90
37702;DHT22;23548;51.196;6.838;2022-11-09T03:40:49;14.70;99.90
37702;DHT22;23548;51.196;6.838;2022-11-09T03:43:15;14.80;99.90
37702;DHT22;23548;51.196;6.838;2022-11-09T03:45:41;14.70;99.90
37702;DHT22;23548;51.196;6.838;2022-11-09T03:48:07;14.70;99.90
37702;DHT22;23548;51.196;6.838;2022-11-09T03:50:33;14.80;99.90
37702;DHT22;23548;51.196;6.838;2022-11-09T03:53:00;14.80;99.90
37702;DHT22;23548;51.196;6.838;2022-11-09T03:55:27;14.80;99.90
37702;DHT22;23548;51.196;6.838;2022-11-09T03:57:53;14.80;99.90
37702;DHT22;23548;51.196;6.838;2022-11-09T04:00:21;14.80;99.90
37702;DHT22;23548;51.196;6.838;2022-11-09T04:02:47;14.80;99.90
37702;DHT22;23548;51.196;6.838;2022-11-09T04:05:13;14.90;99.90
37702;DHT22;23548;51.196;6.838;2022-11-09T04:07:40;14.80;99.90
37702;DHT22;23548;51.196;6.838;2022-11-09T04:10:10;14.80;99.90
37702;DHT22;23548;51.196;6.838;2022-11-09T04:12:36;14.90;99.90
37702;DHT22;23548;51.196;6.838;2022-11-09T04:15:02;14.90;99.90
37702;DHT22;23548;51.196;6.838;2022-11-09T04:17:27;14.90;99.90
37702;DHT22;23548;51.196;6.838;2022-11-09T04:19:53;14.90;99.90
37702;DHT22;23548;51.196;6.838;2022-11-09T04:22:19;14.90;99.90
37702;DHT22;23548;51.196;6.838;2022-11-09T04:24:45;14.90;99.90
37702;DHT22;23548;51.196;6.838;2022-11-09T04:27:10;14.90;99.90
37702;DHT22;23548;51.196;6.838;2022-11-09T04:29:37;14.90;99.90
37702;DHT22;23548;51.196;6.838;2022-11-09T04:32:02;14.90;99.90
37702;DHT22;23548;51.196;6.838;2022-11-09T04:34:28;14.90;99.90
37702;DHT22;23548;51.196;6.838;2022-11-09T04:36:54;14.90;99.90
37702;DHT22;23548;51.196;6.838;2022-11-09T04:39:20;14.80;99.90
37702;DHT22;23548;51.196;6.838;2022-11-09T04:41:45;14.80;99.90
37702;DHT22;23548;51.196;6.838;2022-11-09T04:44:11;14.70;99.90
37702;DHT22;23548;51.196;6.838;2022-11-09T04:46:37;14.80;99.90
37702;DHT22;23548;51.196;6.838;2022-11-09T04:49:03;14.80;99.90
37702;DHT22;23548;51.196;6.838;2022-11-09T04:51:28;14.80;99.90
37702;DHT22;23548;51.196;6.838;2022-11-09T04:53:54;14.70;99.90
37702;DHT22;23548;51.196;6.838;2022-11-09T04:56:21;14.70;99.90
37702;DHT22;23548;51.196;6.838;2022-11-09T04:58:47;14.60;99.90
37702;DHT22;23548;51.196;6.838;2022-11-09T05:01:14;14.60;99.90
37702;DHT22;23548;51.196;6.838;2022-11-09T05:03:40;14.50;99.90
37702;DHT22;23548;51.196;6.838;2022-11-09T05:06:06;14.50;99.90
37702;DHT22;23548;51.196;6.838;2022-11-09T05:08:54;14.40;99.90
37702;DHT22;23548;51.196;6.838;2022-11-09T05:11:20;14.40;99.90
37702;DHT22;23548;51.196;6.838;2022-11-09T05:13:46;14.40;99.90
37702;DHT22;23548;51.196;6.838;2022-11-09T05:16:13;14.40;99.90
37702;DHT22;23548;51.196;6.838;2022-11-09T05:18:39;14.30;99.90
37702;DHT22;23548;51.196;6.838;2022-11-09T05:21:05;14.30;99.90
37702;DHT22;23548;51.196;6.838;2022-11-09T05:23:31;14.30;99.90
37702;DHT22;23548;51.196;6.838;2022-11-09T05:26:15;14.30;99.90
37702;DHT22;23548;51.196;6.838;2022-11-09T05:28:41;14.20;99.90
37702;DHT22;23548;51.196;6.838;2022-11-09T05:31:07;14.20;99.90
37702;DHT22;23548;51.196;6.838;2022-11-09T05:33:33;14.20;99.90
37702;DHT22;23548;51.196;6.838;2022-11-09T05:35:59;14.20;99.90
37702;DHT22;23548;51.196;6.838;2022-11-09T05:38:25;14.20;99.90
37702;DHT22;23548;51.196;6.838;2022-11-09T05:40:51;14.20;99.90
37702;DHT22;23548;51.196;6.838;2022-11-09T05:43:18;14.20;99.90
37702;DHT22;23548;51.196;6.838;2022-11-09T05:45:44;14.20;99.90
37702;DHT22;23548;51.196;6.838;2022-11-09T05:48:12;14.20;99.90
37702;DHT22;23548;51.196;6.838;2022-11-09T05:50:39;14.20;99.90
37702;DHT22;23548;51.196;6.838;2022-11-09T05:53:06;14.20;99.90
37702;DHT22;23548;51.196;6.838;2022-11-09T05:55:31;14.20;99.90
37702;DHT22;23548;51.196;6.838;2022-11-09T05:57:58;14.20;99.90
37702;DHT22;23548;51.196;6.838;2022-11-09T06:00:24;14.20;99.90
37702;DHT22;23548;51.196;6.838;2022-11-09T06:02:50;14.20;99.90
37702;DHT22;23548;51.196;6.838;2022-11-09T06:05:16;14.20;99.90
37702;DHT22;23548;51.196;6.838;2022-11-09T06:07:42;14.20;99.90
37702;DHT22;23548;51.196;6.838;2022-11-09T06:10:08;14.20;99.90
37702;DHT22;23548;51.196;6.838;2022-11-09T06:12:34;14.20;99.90
37702;DHT22;23548;51.196;6.838;2022-11-09T06:15:00;14.30;99.90
37702;DHT22;23548;51.196;6.838;2022-11-09T06:17:26;14.20;99.90
37702;DHT22;23548;51.196;6.838;2022-11-09T06:19:51;14.20;99.90
37702;DHT22;23548;51.196;6.838;2022-11-09T06:22:17;14.20;99.90
37702;DHT22;23548;51.196;6.838;2022-11-09T06:24:43;14.10;99.90
37702;DHT22;23548;51.196;6.838;2022-11-09T06:27:09;14.10;99.90
37702;DHT22;23548;51.196;6.838;2022-11-09T06:29:35;14.10;99.90
37702;DHT22;23548;51.196;6.838;2022-11-09T06:32:01;14.10;99.90
37702;DHT22;23548;51.196;6.838;2022-11-09T06:34:26;14.10;99.90
37702;DHT22;23548;51.196;6.838;2022-11-09T06:36:52;14.10;99.90
37702;DHT22;23548;51.196;6.838;2022-11-09T06:39:18;14.00;99.90
37702;DHT22;23548;51.196;6.838;2022-11-09T06:41:44;14.00;99.90
37702;DHT22;23548;51.196;6.838;2022-11-09T06:44:10;14.00;99.90
37702;DHT22;23548;51.196;6.838;2022-11-09T06:46:35;13.90;99.90
37702;DHT22;23548;51.196;6.838;2022-11-09T06:49:01;13.90;99.90
37702;DHT22;23548;51.196;6.838;2022-11-09T06:51:27;13.80;99.90
37702;DHT22;23548;51.196;6.838;2022-11-09T06:53:53;13.80;99.90
37702;DHT22;23548;51.196;6.838;2022-11-09T06:56:19;13.80;99.90
37702;DHT22;23548;51.196;6.838;2022-11-09T06:58:45;13.80;99.90
37702;DHT22;23548;51.196;6.838;2022-11-09T07:01:12;13.80;99.90
37702;DHT22;23548;51.196;6.838;2022-11-09T07:03:40;13.70;99.90
37702;DHT22;23548;51.196;6.838;2022-11-09T07:06:07;13.70;99.90
37702;DHT22;23548;51.196;6.838;2022-11-09T07:08:34;13.70;99.90
37702;DHT22;23548;51.196;6.838;2022-11-09T07:11:05;13.70;99.90
37702;DHT22;23548;51.196;6.838;2022-11-09T07:13:31;13.80;99.90
37702;DHT22;23548;51.196;6.838;2022-11-09T07:15:57;13.70;99.90
37702;DHT22;23548;51.196;6.838;2022-11-09T07:18:22;13.70;99.90
37702;DHT22;23548;51.196;6.838;2022-11-09T07:20:49;13.80;99.90
37702;DHT22;23548;51.196;6.838;2022-11-09T07:23:16;13.80;99.90
37702;DHT22;23548;51.196;6.838;2022-11-09T07:25:41;13.80;99.90
37702;DHT22;23548;51.196;6.838;2022-11-09T07:28:09;13.80;99.90
37702;DHT22;23548;51.196;6.838;2022-11-09T07:30:36;13.70;99.90
37702;DHT22;23548;51.196;6.838;2022-11-09T07:33:03;13.70;99.90
37702;DHT22;23548;51.196;6.838;2022-11-09T07:35:29;13.60;99.90
37702;DHT22;23548;51.196;6.838;2022-11-09T07:37:59;13.50;99.90
37702;DHT22;23548;51.196;6.838;2022-11-09T07:40:26;13.50;99.90
37702;DHT22;23548;51.196;6.838;2022-11-09T07:42:52;13.50;99.90
37702;DHT22;23548;51.196;6.838;2022-11-09T07:45:17;13.50;99.90
37702;DHT22;23548;51.196;6.838;2022-11-09T07:47:43;13.50;99.90
37702;DHT22;23548;51.196;6.838;2022-11-09T07:50:09;13.50;99.90
37702;DHT22;23548;51.196;6.838;2022-11-09T07:52:35;13.50;99.90
37702;DHT22;23548;51.196;6.838;2022-11-09T07:55:01;13.40;99.90
37702;DHT22;23548;51.196;6.838;2022-11-09T07:57:26;13.40;99.90
37702;DHT22;23548;51.196;6.838;2022-11-09T07:59:52;13.40;99.90
37702;DHT22;23548;51.196;6.838;2022-11-09T08:02:18;13.40;99.90
37702;DHT22;23548;51.196;6.838;2022-11-09T08:04:44;13.40;99.90
37702;DHT22;23548;51.196;6.838;2022-11-09T08:07:09;13.40;99.90
37702;DHT22;23548;51.196;6.838;2022-11-09T08:09:35;13.40;99.90
37702;DHT22;23548;51.196;6.838;2022-11-09T08:12:01;13.40;99.90
37702;DHT22;23548;51.196;6.838;2022-11-09T08:14:27;13.30;99.90
37702;DHT22;23548;51.196;6.838;2022-11-09T08:16:53;13.30;99.90
37702;DHT22;23548;51.196;6.838;2022-11-09T08:19:19;13.30;99.90
37702;DHT22;23548;51.196;6.838;2022-11-09T08:21:45;13.30;99.90
37702;DHT22;23548;51.196;6.838;2022-11-09T08:24:11;13.40;99.90
37702;DHT22;23548;51.196;6.838;2022-11-09T08:26:37;13.40;99.90
37702;DHT22;23548;51.196;6.838;2022-11-09T08:29:02;13.40;99.90
37702;DHT22;23548;51.196;6.838;2022-11-09T08:31:28;13.50;99.90
37702;DHT22;23548;51.196;6.838;2022-11-09T08:33:55;13.60;99.90
37702;DHT22;23548;51.196;6.838;2022-11-09T08:36:21;13.60;99.90
37702;DHT22;23548;51.196;6.838;2022-11-09T08:38:46;13.70;99.90
37702;DHT22;23548;51.196;6.838;2022-11-09T08:41:13;13.80;99.90
37702;DHT22;23548;51.196;6.838;2022-11-09T08:43:39;13.90;99.90
37702;DHT22;23548;51.196;6.838;2022-11-09T08:46:04;14.10;99.90
37702;DHT22;23548;51.196;6.838;2022-11-09T08:48:30;14.20;99.90
37702;DHT22;23548;51.196;6.838;2022-11-09T08:50:58;14.30;99.90
37702;DHT22;23548;51.196;6.838;2022-11-09T08:53:26;14.40;99.90
37702;DHT22;23548;51.196;6.838;2022-11-09T08:55:53;14.50;99.90
37702;DHT22;23548;51.196;6.838;2022-11-09T08:58:19;14.60;99.90
37702;DHT22;23548;51.196;6.838;2022-11-09T09:00:45;14.70;99.90
37702;DHT22;23548;51.196;6.838;2022-11-09T09:03:11;14.80;99.90
37702;DHT22;23548;51.196;6.838;2022-11-09T09:05:37;14.90;99.90
37702;DHT22;23548;51.196;6.838;2022-11-09T09:08:04;14.80;99.90
37702;DHT22;23548;51.196;6.838;2022-11-09T09:10:31;14.90;99.90
37702;DHT22;23548;51.196;6.838;2022-11-09T09:13:00;15.00;99.90
37702;DHT22;23548;51.196;6.838;2022-11-09T09:15:26;15.00;99.90
37702;DHT22;23548;51.196;6.838;2022-11-09T09:17:52;15.00;99.90
37702;DHT22;23548;51.196;6.838;2022-11-09T09:20:18;14.90;99.90
37702;DHT22;23548;51.196;6.838;2022-11-09T09:22:43;14.90;99.90
37702;DHT22;23548;51.196;6.838;2022-11-09T09:25:09;15.00;99.90
37702;DHT22;23548;51.196;6.838;2022-11-09T09:27:35;15.00;99.90
37702;DHT22;23548;51.196;6.838;2022-11-09T09:30:02;15.10;99.90
37702;DHT22;23548;51.196;6.838;2022-11-09T09:32:28;15.20;99.90
37702;DHT22;23548;51.196;6.838;2022-11-09T09:34:54;15.30;99.90
37702;DHT22;23548;51.196;6.838;2022-11-09T09:37:20;15.10;99.90
37702;DHT22;23548;51.196;6.838;2022-11-09T09:39:47;15.30;99.90
37702;DHT22;23548;51.196;6.838;2022-11-09T09:42:21;15.30;99.90
37702;DHT22;23548;51.196;6.838;2022-11-09T09:45:13;15.40;99.90
37702;DHT22;23548;51.196;6.838;2022-11-09T09:50:48;15.30;99.90
37702;DHT22;23548;51.196;6.838;2022-11-09T09:53:31;15.30;99.90
37702;DHT22;23548;51.196;6.838;2022-11-09T09:56:05;15.30;99.90
37702;DHT22;23548;51.196;6.838;2022-11-09T09:58:34;15.30;99.90
37702;DHT22;23548;51.196;6.838;2022-11-09T10:01:12;15.20;99.90
37702;DHT22;23548;51.196;6.838;2022-11-09T10:03:39;15.20;99.90
37702;DHT22;23548;51.196;6.838;2022-11-09T10:25:05;15.00;99.90
37702;DHT22;23548;51.196;6.838;2022-11-09T10:27:36;15.00;99.90
37702;DHT22;23548;51.196;6.838;2022-11-09T10:30:14;15.00;99.90
37702;DHT22;23548;51.196;6.838;2022-11-09T10:32:42;15.00;99.90
37702;DHT22;23548;51.196;6.838;2022-11-09T10:37:40;14.80;99.90
37702;DHT22;23548;51.196;6.838;2022-11-09T10:42:35;14.80;99.90
37702;DHT22;23548;51.196;6.838;2022-11-09T10:45:11;14.80;99.90
37702;DHT22;23548;51.196;6.838;2022-11-09T10:47:50;14.80;99.90
37702;DHT22;23548;51.196;6.838;2022-11-09T10:50:49;14.90;99.90
37702;DHT22;23548;51.196;6.838;2022-11-09T10:53:32;14.90;99.90
37702;DHT22;23548;51.196;6.838;2022-11-09T10:56:13;14.90;99.90
37702;DHT22;23548;51.196;6.838;2022-11-09T10:58:47;15.00;99.90
37702;DHT22;23548;51.196;6.838;2022-11-09T11:01:24;15.20;99.90
37702;DHT22;23548;51.196;6.838;2022-11-09T11:03:54;15.30;99.90
37702;DHT22;23548;51.196;6.838;2022-11-09T11:08:50;15.40;99.90
37702;DHT22;23548;51.196;6.838;2022-11-09T11:13:43;15.50;99.90
37702;DHT22;23548;51.196;6.838;2022-11-09T11:16:28;15.50;99.90
37702;DHT22;23548;51.196;6.838;2022-11-09T11:18:56;15.60;99.90
37702;DHT22;23548;51.196;6.838;2022-11-09T11:21:24;15.60;99.90
37702;DHT22;23548;51.196;6.838;2022-11-09T11:29:28;15.60;99.90
37702;DHT22;23548;51.196;6.838;2022-11-09T11:31:56;15.60;99.90
37702;DHT22;23548;51.196;6.838;2022-11-09T11:34:22;15.60;99.90
37702;DHT22;23548;51.196;6.838;2022-11-09T11:48:05;15.60;99.90
37702;DHT22;23548;51.196;6.838;2022-11-09T11:50:42;15.60;99.90
37702;DHT22;23548;51.196;6.838;2022-11-09T11:56:17;15.70;99.90
37702;DHT22;23548;51.196;6.838;2022-11-09T12:06:54;15.60;99.90
37702;DHT22;23548;51.196;6.838;2022-11-09T12:17:26;15.90;99.90
37702;DHT22;23548;51.196;6.838;2022-11-09T12:20:28;16.00;99.90
37702;DHT22;23548;51.196;6.838;2022-11-09T12:26:04;16.40;99.90
37702;DHT22;23548;51.196;6.838;2022-11-09T12:37:51;16.20;99.90
37702;DHT22;23548;51.196;6.838;2022-11-09T12:40:23;16.00;99.90
37702;DHT22;23548;51.196;6.838;2022-11-09T12:45:40;16.00;99.90
37702;DHT22;23548;51.196;6.838;2022-11-09T12:48:23;15.90;99.90
37702;DHT22;23548;51.196;6.838;2022-11-09T12:50:51;15.80;99.90
37702;DHT22;23548;51.196;6.838;2022-11-09T12:53:19;15.70;99.90
37702;DHT22;23548;51.196;6.838;2022-11-09T12:55:58;15.70;99.90
37702;DHT22;23548;51.196;6.838;2022-11-09T12:58:33;15.70;99.90
37702;DHT22;23548;51.196;6.838;2022-11-09T13:01:04;15.70;99.90
37702;DHT22;23548;51.196;6.838;2022-11-09T13:03:33;15.70;99.90
37702;DHT22;23548;51.196;6.838;2022-11-09T13:11:42;15.70;99.90
37702;DHT22;23548;51.196;6.838;2022-11-09T13:19:55;15.70;99.90
37702;DHT22;23548;51.196;6.838;2022-11-09T13:24:54;15.80;99.90
37702;DHT22;23548;51.196;6.838;2022-11-09T13:27:40;16.00;99.90
37702;DHT22;23548;51.196;6.838;2022-11-09T13:38:21;16.00;99.90
37702;DHT22;23548;51.196;6.838;2022-11-09T13:40:48;15.70;99.90
37702;DHT22;23548;51.196;6.838;2022-11-09T13:43:26;15.60;99.90
37702;DHT22;23548;51.196;6.838;2022-11-09T13:48:38;15.40;99.90
37702;DHT22;23548;51.196;6.838;2022-11-09T13:51:37;15.20;99.90
37702;DHT22;23548;51.196;6.838;2022-11-09T13:54:31;15.30;99.90
37702;DHT22;23548;51.196;6.838;2022-11-09T13:56:59;15.50;99.90
37702;DHT22;23548;51.196;6.838;2022-11-09T13:59:38;15.70;99.90
37702;DHT22;23548;51.196;6.838;2022-11-09T14:02:17;15.90;99.90
37702;DHT22;23548;51.196;6.838;2022-11-09T14:04:43;15.90;99.90
37702;DHT22;23548;51.196;6.838;2022-11-09T14:17:36;15.60;99.90
37702;DHT22;23548;51.196;6.838;2022-11-09T14:20:30;15.60;99.90
37702;DHT22;23548;51.196;6.838;2022-11-09T14:23:19;15.50;99.90
37702;DHT22;23548;51.196;6.838;2022-11-09T14:25:46;15.20;99.90
37702;DHT22;23548;51.196;6.838;2022-11-09T14:30:49;15.30;99.90
37702;DHT22;23548;51.196;6.838;2022-11-09T14:33:31;15.10;99.90
37702;DHT22;23548;51.196;6.838;2022-11-09T14:36:01;15.00;99.90
37702;DHT22;23548;51.196;6.838;2022-11-09T14:38:28;15.10;99.90
37702;DHT22;23548;51.196;6.838;2022-11-09T14:40:55;15.10;99.90
37702;DHT22;23548;51.196;6.838;2022-11-09T14:45:55;15.10;99.90
37702;DHT22;23548;51.196;6.838;2022-11-09T14:48:23;15.00;99.90
37702;DHT22;23548;51.196;6.838;2022-11-09T14:50:51;15.00;99.90
37702;DHT22;23548;51.196;6.838;2022-11-09T14:53:20;14.90;99.90
37702;DHT22;23548;51.196;6.838;2022-11-09T14:55:50;14.90;99.90
37702;DHT22;23548;51.196;6.838;2022-11-09T14:58:17;14.90;99.90
37702;DHT22;23548;51.196;6.838;2022-11-09T15:00:44;14.90;99.90
37702;DHT22;23548;51.196;6.838;2022-11-09T15:03:28;15.00;99.90
37702;DHT22;23548;51.196;6.838;2022-11-09T15:06:06;15.00;99.90
37702;DHT22;23548;51.196;6.838;2022-11-09T15:08:33;15.10;99.90
37702;DHT22;23548;51.196;6.838;2022-11-09T15:10:59;15.00;99.90
37702;DHT22;23548;51.196;6.838;2022-11-09T15:13:33;15.00;99.90
37702;DHT22;23548;51.196;6.838;2022-11-09T15:19:37;15.00;99.90
37702;DHT22;23548;51.196;6.838;2022-11-09T15:22:03;15.00;99.90
37702;DHT22;23548;51.196;6.838;2022-11-09T15:24:44;14.90;99.90
37702;DHT22;23548;51.196;6.838;2022-11-09T15:27:33;14.90;99.90
37702;DHT22;23548;51.196;6.838;2022-11-09T15:29:59;14.80;99.90
37702;DHT22;23548;51.196;6.838;2022-11-09T15:32:26;14.80;99.90
37702;DHT22;23548;51.196;6.838;2022-11-09T15:34:54;14.80;99.90
37702;DHT22;23548;51.196;6.838;2022-11-09T15:40:05;14.80;99.90
37702;DHT22;23548;51.196;6.838;2022-11-09T15:42:34;14.70;99.90
37702;DHT22;23548;51.196;6.838;2022-11-09T15:45:00;14.70;99.90
37702;DHT22;23548;51.196;6.838;2022-11-09T15:47:31;14.70;99.90
37702;DHT22;23548;51.196;6.838;2022-11-09T15:50:06;14.60;99.90
37702;DHT22;23548;51.196;6.838;2022-11-09T15:52:32;14.50;99.90
37702;DHT22;23548;51.196;6.838;2022-11-09T15:54:57;14.50;99.90
37702;DHT22;23548;51.196;6.838;2022-11-09T15:57:23;14.50;99.90
37702;DHT22;23548;51.196;6.838;2022-11-09T16:02:55;14.40;99.90
37702;DHT22;23548;51.196;6.838;2022-11-09T16:05:21;14.30;99.90
37702;DHT22;23548;51.196;6.838;2022-11-09T16:07:51;14.30;99.90
37702;DHT22;23548;51.196;6.838;2022-11-09T16:10:18;14.30;99.90
37702;DHT22;23548;51.196;6.838;2022-11-09T16:12:45;14.20;99.90
37702;DHT22;23548;51.196;6.838;2022-11-09T16:15:11;14.00;99.90
37702;DHT22;23548;51.196;6.838;2022-11-09T16:17:37;13.90;99.90
37702;DHT22;23548;51.196;6.838;2022-11-09T16:20:03;13.90;99.90
37702;DHT22;23548;51.196;6.838;2022-11-09T16:22:30;13.90;99.90
37702;DHT22;23548;51.196;6.838;2022-11-09T16:24:57;14.00;99.90
37702;DHT22;23548;51.196;6.838;2022-11-09T16:27:24;13.90;99.90
37702;DHT22;23548;51.196;6.838;2022-11-09T16:29:53;13.80;99.90
37702;DHT22;23548;51.196;6.838;2022-11-09T16:32:19;13.80;99.90
37702;DHT22;23548;51.196;6.838;2022-11-09T16:34:45;13.70;99.90
37702;DHT22;23548;51.196;6.838;2022-11-09T16:37:11;13.60;99.90
37702;DHT22;23548;51.196;6.838;2022-11-09T16:39:37;13.60;99.90
37702;DHT22;23548;51.196;6.838;2022-11-09T16:42:07;13.50;99.90
37702;DHT22;23548;51.196;6.838;2022-11-09T16:44:36;13.50;99.90
37702;DHT22;23548;51.196;6.838;2022-11-09T16:47:04;13.40;99.90
37702;DHT22;23548;51.196;6.838;2022-11-09T16:49:31;13.40;99.90
37702;DHT22;23548;51.196;6.838;2022-11-09T16:51:57;13.30;99.90
37702;DHT22;23548;51.196;6.838;2022-11-09T16:54:23;13.20;99.90
37702;DHT22;23548;51.196;6.838;2022-11-09T16:56:48;13.10;99.90
37702;DHT22;23548;51.196;6.838;2022-11-09T16:59:15;13.20;99.90
37702;DHT22;23548;51.196;6.838;2022-11-09T17:01:41;13.10;99.90
37702;DHT22;23548;51.196;6.838;2022-11-09T17:04:06;13.10;99.90
37702;DHT22;23548;51.196;6.838;2022-11-09T17:06:33;13.00;99.90
37702;DHT22;23548;51.196;6.838;2022-11-09T17:09:00;12.90;99.90
37702;DHT22;23548;51.196;6.838;2022-11-09T17:11:26;12.90;99.90
37702;DHT22;23548;51.196;6.838;2022-11-09T17:13:55;12.90;99.90
37702;DHT22;23548;51.196;6.838;2022-11-09T17:16:21;13.00;99.90
37702;DHT22;23548;51.196;6.838;2022-11-09T17:18:47;13.00;99.90
37702;DHT22;23548;51.196;6.838;2022-11-09T17:21:13;13.10;99.90
37702;DHT22;23548;51.196;6.838;2022-11-09T17:23:40;13.10;99.90
37702;DHT22;23548;51.196;6.838;2022-11-09T17:26:07;13.20;99.90
37702;DHT22;23548;51.196;6.838;2022-11-09T17:28:33;13.20;99.90
37702;DHT22;23548;51.196;6.838;2022-11-09T17:31:05;13.20;99.90
37702;DHT22;23548;51.196;6.838;2022-11-09T17:33:31;13.20;99.90
37702;DHT22;23548;51.196;6.838;2022-11-09T17:36:03;13.30;99.90
37702;DHT22;23548;51.196;6.838;2022-11-09T17:38:29;13.40;99.90
37702;DHT22;23548;51.196;6.838;2022-11-09T17:41:13;13.40;99.90
37702;DHT22;23548;51.196;6.838;2022-11-09T17:43:41;13.50;99.90
37702;DHT22;23548;51.196;6.838;2022-11-09T17:48:33;13.40;99.90
37702;DHT22;23548;51.196;6.838;2022-11-09T17:51:00;13.30;99.90
37702;DHT22;23548;51.196;6.838;2022-11-09T17:53:26;13.30;99.90